Waterloo, NY

2:44 AM EDT on May 29, 2015 (GMT -0400)
E Elisha St | | Change Station
CLOSE
Current Station
Personal Weather Station
Location: Waterloo, NY
Elevation: 463 ft
Nearby Weather Stations

Elev 463 ft 42.91 °N, 76.86 °W | Updated 8 seconds ago

Clear
Clear
54.3 °F
Feels Like 54.3 °F
N
0.0
Wind Variable Wind from SSW
Gusts 0.0 mph

Today
High -- | Low -- °F
--% Chance of Precip.
Yesterday
High -- | Low -- °F
Precip. -- in
5:33 AM 8:37 PM
Waxing Gibbous, 81% visible
Pressure 30.28 in
Visibility 10.0 miles
Clouds Clear
Dew Point 53 °F
Humidity 95%
Rainfall 0.00 in
Snow Depth Not available.
UV 0 out of 12
Pollen 9.00 out of 12
Air Quality Not available.
Flu Activity Widespread
METAR KPEO 290553Z AUTO 22004KT 10SM CLR 14/12 A3029 RMK AO2 SLP254 T01390122 10211 20133 58000

More Conditions Fewer Conditions

Pressure 30.28 in
Visibility 10.0 miles
Clouds Clear
Dew Point 53 °F
Humidity 95%
Rainfall 0.00 in
Snow Depth Not available.
UV 0 out of 12
Pollen 9.00 out of 12
Air Quality Not available.
Flu Activity Widespread
METAR KPEO 290553Z AUTO 22004KT 10SM CLR 14/12 A3029 RMK AO2 SLP254 T01390122 10211 20133 58000

More Conditions Fewer Conditions

10-Day Weather Forecast

Almanac

Astronomy

May. 29, 2015 Rise Set
Actual Time
Civil Twilight
Nautical Twilight
Astronomical Twilight
Moon
Length of Visible Light
Length of Day
Tomorrow will be .
, % of the Moon is Illuminated

Today's Extremes

State Highs State Lows

Community

WunderPhotos

Upload Photos

1,825,215 photos uploaded!

WunderBlogs® & News

Nearby

Air Quality

  Air Quality AQ Index Pollutant
Not available.

Snow Depth

Station Depth Elevation

Earthquake Activity

City Distance Mag. Time & Date
Minimum magnitude displayed is 2.5.

Coastal Water Temperatures

Place Temperature

Stations

Nearby Weather Stations

Station Location Temp. Windchill Dew Point Humidity Wind Precip. Elev Updated Type